Time;durP1;ratioP1;P1;durP2;ratioP2;P2;SDS_P1;SDS_P2;PMS_P1;PMS_P2;Temp;Humidity;BMP_temperature;BMP_pressure;BME280_temperature;BME280_humidity;BME280_pressure;Samples;Min_cycle;Max_cycle;Signal;HPM_P1;HPM_P2
2021/01/18 00:01:20;;;;;;;5.47;2.63;;;16.20;99.90;;;;;;5003937;28;20118;-61
2021/01/18 00:03:46;;;;;;;7.88;3.03;;;16.10;99.90;;;;;;5020558;28;20032;-60
2021/01/18 00:06:19;;;;;;;8.18;3.08;;;16.10;99.90;;;;;;5029371;28;20478;-60
2021/01/18 00:08:46;;;;;;;5.30;2.90;;;16.10;99.90;;;;;;4998284;28;20030;-60
2021/01/18 00:11:12;;;;;;;6.65;2.72;;;16.00;99.90;;;;;;4991139;28;20038;-59
2021/01/18 00:13:38;;;;;;;6.03;2.50;;;16.00;99.90;;;;;;4990905;28;20034;-62
2021/01/18 00:16:04;;;;;;;7.70;2.92;;;16.00;99.90;;;;;;4992115;28;20034;-60
2021/01/18 00:18:31;;;;;;;9.95;3.25;;;16.00;99.90;;;;;;4995413;28;20069;-61
2021/01/18 00:20:58;;;;;;;5.57;2.88;;;15.90;99.90;;;;;;4995400;28;20027;-61
2021/01/18 00:23:24;;;;;;;4.47;2.40;;;15.90;99.90;;;;;;4994869;28;20487;-61
2021/01/18 00:25:50;;;;;;;6.15;2.65;;;15.90;99.90;;;;;;5012238;28;20046;-61
2021/01/18 00:28:16;;;;;;;6.15;2.97;;;15.90;99.90;;;;;;4994927;28;20031;-61
2021/01/18 00:30:42;;;;;;;5.05;2.83;;;15.90;99.90;;;;;;4994464;28;20454;-60
2021/01/18 00:33:08;;;;;;;6.60;2.72;;;15.80;99.90;;;;;;4994987;28;20038;-60
2021/01/18 00:35:33;;;;;;;7.45;3.10;;;15.80;99.90;;;;;;4994193;28;20478;-61
2021/01/18 00:37:59;;;;;;;6.68;3.05;;;15.80;99.90;;;;;;4995053;28;20471;-61
2021/01/18 00:40:25;;;;;;;8.02;2.63;;;15.80;99.90;;;;;;4994503;28;20033;-62
2021/01/18 00:42:51;;;;;;;5.00;2.40;;;15.80;99.90;;;;;;4995039;28;20109;-61
2021/01/18 00:45:19;;;;;;;4.35;2.47;;;15.70;99.90;;;;;;4994704;28;20355;-61
2021/01/18 00:47:46;;;;;;;5.18;2.50;;;15.70;99.90;;;;;;4994167;28;20035;-62
2021/01/18 00:50:13;;;;;;;6.82;3.00;;;15.70;99.90;;;;;;4994264;28;20130;-62
2021/01/18 00:52:44;;;;;;;5.57;2.60;;;15.70;99.90;;;;;;4994226;28;20038;-62
2021/01/18 00:55:16;;;;;;;5.68;3.05;;;15.60;99.90;;;;;;4994345;28;20026;-62
2021/01/18 00:57:43;;;;;;;5.18;2.78;;;15.60;99.90;;;;;;4994004;28;20446;-62
2021/01/18 01:00:11;;;;;;;3.42;2.35;;;15.60;99.90;;;;;;4994674;28;20372;-62
2021/01/18 01:02:41;;;;;;;4.75;2.40;;;15.60;99.90;;;;;;5012475;28;20503;-61
2021/01/18 01:05:09;;;;;;;4.57;2.42;;;15.60;99.90;;;;;;5005733;28;20486;-61
2021/01/18 01:07:46;;;;;;;6.97;2.72;;;15.60;99.90;;;;;;4993858;28;20030;-61
2021/01/18 01:10:14;;;;;;;4.90;2.97;;;15.50;99.90;;;;;;4994062;28;20076;-61
2021/01/18 01:12:40;;;;;;;5.70;2.47;;;15.50;99.90;;;;;;4993887;28;20046;-60
2021/01/18 01:15:10;;;;;;;5.85;2.55;;;15.50;99.90;;;;;;5004791;28;20032;-62
2021/01/18 01:17:40;;;;;;;5.00;2.20;;;15.50;99.90;;;;;;4993732;28;20026;-60
2021/01/18 01:20:07;;;;;;;4.32;2.58;;;15.50;99.90;;;;;;4993771;28;20105;-61
2021/01/18 01:22:34;;;;;;;6.00;2.63;;;15.40;99.90;;;;;;4993384;28;20114;-59
2021/01/18 01:24:59;;;;;;;5.68;2.65;;;15.40;99.90;;;;;;4994009;28;20066;-59
2021/01/18 01:27:25;;;;;;;5.32;2.53;;;15.40;99.90;;;;;;4993270;28;20061;-59
2021/01/18 01:29:50;;;;;;;5.97;2.42;;;15.40;99.90;;;;;;4993473;28;20438;-61
2021/01/18 01:32:16;;;;;;;4.95;2.60;;;15.40;99.90;;;;;;4993638;28;20038;-61
2021/01/18 01:34:42;;;;;;;4.90;2.40;;;15.40;99.90;;;;;;5012976;28;20030;-61
2021/01/18 01:37:07;;;;;;;5.35;2.80;;;15.30;99.90;;;;;;4997940;28;20026;-60
2021/01/18 01:39:33;;;;;;;6.00;2.65;;;15.30;99.90;;;;;;4993422;28;20068;-59
2021/01/18 01:41:58;;;;;;;5.10;2.55;;;15.30;99.90;;;;;;5007138;28;20103;-61
2021/01/18 01:44:24;;;;;;;5.22;2.30;;;15.30;99.90;;;;;;4999382;28;20470;-60
2021/01/18 01:46:50;;;;;;;6.32;2.38;;;15.20;99.90;;;;;;4999899;28;20042;-61
2021/01/18 01:49:16;;;;;;;4.45;2.38;;;15.20;99.90;;;;;;4993567;28;20030;-59
2021/01/18 01:51:42;;;;;;;5.97;2.53;;;15.20;99.90;;;;;;5011896;28;20042;-59
2021/01/18 01:54:08;;;;;;;7.85;2.75;;;15.20;99.90;;;;;;5013040;28;20018;-61
2021/01/18 01:56:34;;;;;;;6.38;2.55;;;15.20;99.90;;;;;;5012519;28;20030;-60
2021/01/18 01:59:00;;;;;;;6.07;2.78;;;15.20;99.90;;;;;;4997608;28;20542;-61
2021/01/18 02:01:27;;;;;;;9.23;2.90;;;15.10;99.90;;;;;;4993235;28;20038;-61
2021/01/18 02:03:57;;;;;;;7.63;2.70;;;15.20;99.90;;;;;;5009972;28;20112;-61
2021/01/18 02:06:22;;;;;;;6.95;2.65;;;15.10;99.90;;;;;;4993383;28;20039;-60
2021/01/18 02:08:48;;;;;;;5.30;2.30;;;15.10;99.90;;;;;;4993097;28;20462;-60
2021/01/18 02:11:14;;;;;;;5.72;2.80;;;15.10;99.90;;;;;;4992896;28;20030;-60
2021/01/18 02:14:17;;;;;;;5.15;2.47;;;15.00;99.90;;;;;;5009591;28;20451;-59
2021/01/18 02:16:58;;;;;;;8.07;2.42;;;15.00;99.90;;;;;;5003568;28;20112;-61
2021/01/18 02:19:45;;;;;;;5.88;2.85;;;15.00;99.90;;;;;;4992856;28;20026;-61
2021/01/18 02:23:11;;;;;;;4.55;2.30;;;15.00;99.90;;;;;;4992707;28;20026;-61
2021/01/18 02:25:41;;;;;;;5.88;2.65;;;14.90;99.90;;;;;;4985432;28;20041;-61
2021/01/18 02:28:07;;;;;;;7.13;2.58;;;14.90;99.90;;;;;;5012517;28;20038;-61
2021/01/18 02:31:16;;;;;;;5.78;2.65;;;14.90;99.90;;;;;;5011573;28;20026;-60
2021/01/18 02:34:05;;;;;;;3.85;2.35;;;14.90;99.90;;;;;;4988094;28;20331;-60
2021/01/18 02:36:57;;;;;;;4.97;2.85;;;14.90;99.90;;;;;;5001928;28;20030;-60
2021/01/18 02:39:47;;;;;;;6.75;2.75;;;14.90;99.90;;;;;;4991680;28;20026;-61
2021/01/18 02:42:19;;;;;;;7.75;2.50;;;14.80;99.90;;;;;;4992515;28;20034;-61
2021/01/18 02:44:48;;;;;;;5.15;2.33;;;14.80;99.90;;;;;;4992057;28;20026;-60
2021/01/18 02:47:15;;;;;;;6.93;2.55;;;14.80;99.90;;;;;;5002719;28;20382;-60
2021/01/18 02:49:42;;;;;;;7.72;2.78;;;14.80;99.90;;;;;;4991984;28;20038;-60
2021/01/18 02:52:12;;;;;;;4.55;2.30;;;14.80;99.90;;;;;;5010708;28;20461;-61
2021/01/18 02:54:38;;;;;;;7.40;2.30;;;14.80;99.90;;;;;;5011613;28;20335;-61
2021/01/18 02:57:12;;;;;;;5.30;2.30;;;14.80;99.90;;;;;;5010861;28;20032;-61
2021/01/18 02:59:37;;;;;;;;;;;14.80;99.90;;;;;;4999024;28;20022;-61
2021/01/18 03:02:29;;;;;;;7.10;2.35;;;14.70;99.90;;;;;;4994901;28;20358;-61
2021/01/18 03:05:10;;;;;;;5.70;2.20;;;14.70;99.90;;;;;;4991702;28;20533;-61
2021/01/18 03:07:44;;;;;;;5.05;2.10;;;14.70;99.90;;;;;;4991894;28;20033;-61
2021/01/18 03:10:20;;;;;;;7.43;2.67;;;14.60;99.90;;;;;;4992043;28;20037;-61
2021/01/18 03:12:55;;;;;;;6.72;2.70;;;14.60;99.90;;;;;;5009266;28;20061;-62
2021/01/18 03:15:25;;;;;;;4.95;2.40;;;14.60;99.90;;;;;;5008707;28;20038;-61
2021/01/18 03:17:57;;;;;;;4.78;2.17;;;14.60;99.90;;;;;;5009002;28;20390;-61
2021/01/18 03:20:24;;;;;;;5.20;2.40;;;14.60;99.90;;;;;;5010590;28;20050;-62
2021/01/18 03:22:50;;;;;;;5.90;2.40;;;14.50;99.90;;;;;;4991730;28;20475;-61
2021/01/18 03:25:15;;;;;;;6.13;2.70;;;14.50;99.90;;;;;;4991744;28;20046;-60
2021/01/18 03:27:50;;;;;;;5.93;2.53;;;14.50;99.90;;;;;;4991512;28;20091;-61
2021/01/18 03:30:18;;;;;;;4.60;2.47;;;14.50;99.90;;;;;;4991729;28;20038;-61
2021/01/18 03:32:48;;;;;;;6.70;2.83;;;14.50;99.90;;;;;;5003299;28;20111;-61
2021/01/18 03:35:14;;;;;;;4.88;2.30;;;14.50;99.90;;;;;;5008809;28;20029;-61
2021/01/18 03:37:39;;;;;;;7.97;2.70;;;14.40;99.90;;;;;;4991331;28;20390;-59
2021/01/18 03:40:06;;;;;;;6.57;2.70;;;14.40;99.90;;;;;;4991974;28;20026;-60
2021/01/18 03:42:31;;;;;;;6.65;2.45;;;14.40;99.90;;;;;;4991544;28;20553;-59
2021/01/18 03:44:57;;;;;;;6.60;2.53;;;14.40;99.90;;;;;;4992095;28;20034;-59
2021/01/18 03:47:23;;;;;;;6.72;2.53;;;14.40;99.90;;;;;;5001998;28;20049;-60
2021/01/18 03:49:48;;;;;;;6.53;2.90;;;14.40;99.90;;;;;;4992703;28;20027;-62
2021/01/18 03:52:14;;;;;;;5.70;2.30;;;14.40;99.90;;;;;;4995293;28;20469;-60
2021/01/18 03:54:39;;;;;;;4.55;2.30;;;14.40;99.90;;;;;;4995390;28;20034;-59
2021/01/18 03:57:05;;;;;;;5.70;2.63;;;14.40;99.90;;;;;;4995334;28;20030;-59
2021/01/18 03:59:30;;;;;;;5.00;2.45;;;14.40;99.90;;;;;;4995461;28;20110;-59
2021/01/18 04:01:56;;;;;;;9.98;2.30;;;14.40;99.90;;;;;;5008469;28;20409;-60
2021/01/18 04:04:22;;;;;;;6.07;2.65;;;14.40;99.90;;;;;;5014046;28;20033;-61
2021/01/18 04:06:47;;;;;;;5.32;2.45;;;14.40;99.90;;;;;;5001597;28;20022;-61
2021/01/18 04:09:13;;;;;;;5.22;2.40;;;14.30;99.90;;;;;;4995586;28;20026;-61
2021/01/18 04:11:38;;;;;;;6.10;2.30;;;14.30;99.90;;;;;;4995016;28;20074;-60
2021/01/18 04:14:04;;;;;;;4.55;2.50;;;14.30;99.90;;;;;;4996107;28;20030;-61
2021/01/18 04:16:30;;;;;;;4.10;2.35;;;14.30;99.90;;;;;;4996143;28;20029;-59
2021/01/18 04:18:55;;;;;;;5.85;2.30;;;14.30;99.90;;;;;;4994389;28;20030;-61
2021/01/18 04:21:21;;;;;;;6.60;2.25;;;14.30;99.90;;;;;;5014842;28;20393;-63
2021/01/18 04:23:46;;;;;;;7.43;2.42;;;14.30;99.90;;;;;;5014115;28;20478;-61
2021/01/18 04:26:13;;;;;;;5.70;2.58;;;14.30;99.90;;;;;;5002796;28;20041;-61
2021/01/18 04:28:40;;;;;;;4.47;2.25;;;14.20;99.90;;;;;;5014168;28;20025;-61
2021/01/18 04:31:05;;;;;;;6.90;2.50;;;14.20;99.90;;;;;;5011928;28;20034;-60
2021/01/18 04:33:31;;;;;;;5.38;2.30;;;14.20;99.90;;;;;;5012245;28;20049;-61
2021/01/18 04:35:57;;;;;;;6.05;2.20;;;14.20;99.90;;;;;;4995318;28;20032;-61
2021/01/18 04:38:26;;;;;;;5.80;2.33;;;14.20;99.90;;;;;;4994851;28;20026;-62
2021/01/18 04:40:51;;;;;;;4.43;2.35;;;14.20;99.90;;;;;;5012292;28;20042;-61
2021/01/18 04:43:18;;;;;;;4.03;2.08;;;14.20;99.90;;;;;;5014328;28;20026;-61
2021/01/18 04:45:44;;;;;;;4.25;2.40;;;14.20;99.90;;;;;;5013163;28;20449;-62
2021/01/18 04:48:12;;;;;;;6.70;2.25;;;14.20;99.90;;;;;;5002039;28;20062;-61
2021/01/18 04:50:38;;;;;;;6.82;2.58;;;14.10;99.90;;;;;;4994325;28;20056;-61
2021/01/18 04:53:17;;;;;;;5.05;2.33;;;14.10;99.90;;;;;;4994425;28;20434;-61
2021/01/18 04:55:42;;;;;;;4.63;2.38;;;14.10;99.90;;;;;;4994291;28;20049;-61
2021/01/18 04:58:16;;;;;;;4.05;2.00;;;14.10;99.90;;;;;;5001364;28;20467;-61
2021/01/18 05:00:55;;;;;;;5.88;2.55;;;14.10;99.90;;;;;;4998381;28;20462;-62
2021/01/18 05:03:25;;;;;;;3.88;2.13;;;14.00;99.90;;;;;;4993738;28;20109;-61
2021/01/18 05:06:03;;;;;;;5.45;2.60;;;14.00;99.90;;;;;;4993938;28;20042;-61
2021/01/18 05:09:05;;;;;;;4.45;2.40;;;14.00;99.90;;;;;;4994493;28;20034;-61
2021/01/18 05:11:34;;;;;;;5.05;2.03;;;14.00;99.90;;;;;;4994422;28;20097;-61
2021/01/18 05:14:04;;;;;;;3.58;2.15;;;14.00;99.90;;;;;;4995989;28;20106;-61
2021/01/18 05:16:34;;;;;;;4.72;2.15;;;14.00;99.90;;;;;;5012780;28;20412;-61
2021/01/18 05:19:09;;;;;;;6.10;2.53;;;14.00;99.90;;;;;;4994855;28;20033;-62
2021/01/18 05:21:42;;;;;;;5.40;2.47;;;14.00;99.90;;;;;;4996881;28;20054;-61
2021/01/18 05:24:08;;;;;;;4.53;2.47;;;13.90;99.90;;;;;;5012607;28;20080;-62
2021/01/18 05:26:34;;;;;;;5.25;2.20;;;14.00;99.90;;;;;;5008956;28;20061;-60
2021/01/18 05:29:00;;;;;;;5.25;2.33;;;13.90;99.90;;;;;;4993935;28;20058;-61
2021/01/18 05:31:28;;;;;;;5.38;2.35;;;13.90;99.90;;;;;;4994373;28;20041;-61
2021/01/18 05:34:01;;;;;;;6.03;2.40;;;13.90;99.90;;;;;;4993735;28;20019;-62
2021/01/18 05:36:42;;;;;;;4.70;1.90;;;13.90;99.90;;;;;;4994143;28;20022;-62
2021/01/18 05:39:29;;;;;;;5.80;2.20;;;13.90;99.90;;;;;;5009009;28;20285;-61
2021/01/18 05:41:55;;;;;;;6.00;2.30;;;13.90;99.90;;;;;;4992983;28;20042;-61
2021/01/18 05:44:30;;;;;;;7.15;2.28;;;13.90;99.90;;;;;;4993556;28;20057;-61
2021/01/18 05:47:05;;;;;;;5.65;1.95;;;13.90;99.90;;;;;;4994178;28;20041;-61
2021/01/18 05:49:48;;;;;;;6.38;2.50;;;13.90;99.90;;;;;;4993746;28;20114;-61
2021/01/18 05:52:23;;;;;;;7.45;2.55;;;13.90;99.90;;;;;;4993410;28;20038;-61
2021/01/18 05:54:49;;;;;;;3.55;2.10;;;13.80;99.90;;;;;;4993066;28;20113;-61
2021/01/18 05:57:15;;;;;;;4.45;2.30;;;13.80;99.90;;;;;;4993315;28;20501;-62
2021/01/18 05:59:42;;;;;;;4.85;1.90;;;13.80;99.90;;;;;;5000823;28;20022;-62
2021/01/18 06:02:09;;;;;;;5.07;2.28;;;13.80;99.90;;;;;;5010327;28;20486;-61
2021/01/18 06:04:34;;;;;;;6.63;2.40;;;13.80;99.90;;;;;;5012510;28;20035;-61
2021/01/18 06:07:03;;;;;;;4.35;1.98;;;13.70;99.90;;;;;;5011161;28;20033;-62
2021/01/18 06:09:47;;;;;;;7.15;2.20;;;13.80;99.90;;;;;;5011816;28;20022;-62
2021/01/18 06:12:25;;;;;;;3.38;2.10;;;13.70;99.90;;;;;;5012612;28;20493;-63
2021/01/18 06:15:09;;;;;;;6.60;2.50;;;13.70;99.90;;;;;;5010694;28;20084;-61
2021/01/18 06:17:41;;;;;;;5.20;2.30;;;13.70;99.90;;;;;;4999441;28;20022;-62
2021/01/18 06:20:07;;;;;;;6.68;2.20;;;13.70;99.90;;;;;;4993005;28;20391;-61
2021/01/18 06:22:34;;;;;;;5.70;2.22;;;13.70;99.90;;;;;;5005427;28;20081;-61
2021/01/18 06:25:13;;;;;;;5.78;2.30;;;13.70;99.90;;;;;;5004918;28;20426;-60
2021/01/18 06:27:39;;;;;;;4.60;2.13;;;13.60;99.90;;;;;;4992264;28;20472;-61
2021/01/18 06:30:18;;;;;;;5.15;2.30;;;13.70;99.90;;;;;;4992620;28;20041;-62
2021/01/18 06:32:44;;;;;;;4.32;2.30;;;13.60;99.90;;;;;;4992374;28;20038;-61
2021/01/18 06:35:10;;;;;;;5.30;2.25;;;13.60;99.90;;;;;;5002975;28;20025;-62
2021/01/18 06:37:38;;;;;;;6.03;2.55;;;13.60;99.90;;;;;;5010070;28;20022;-60
2021/01/18 06:40:05;;;;;;;3.85;2.10;;;13.60;99.90;;;;;;5003977;28;20023;-60
2021/01/18 06:42:32;;;;;;;5.53;2.60;;;13.60;99.90;;;;;;4993016;28;20030;-62
2021/01/18 06:44:57;;;;;;;6.30;2.38;;;13.60;99.90;;;;;;4992950;28;20030;-62
2021/01/18 06:47:27;;;;;;;3.78;2.15;;;13.80;99.90;;;;;;4996111;28;20543;-62
2021/01/18 06:49:58;;;;;;;5.85;2.17;;;14.10;99.90;;;;;;4992051;28;20033;-64
2021/01/18 06:52:30;;;;;;;6.10;1.80;;;14.40;99.90;;;;;;4992344;28;20456;-63
2021/01/18 06:55:00;;;;;;;5.35;1.50;;;14.70;99.90;;;;;;4992195;28;20109;-61
2021/01/18 06:57:43;;;;;;;3.00;1.50;;;15.00;99.90;;;;;;4992359;28;20027;-60
2021/01/18 07:00:20;;;;;;;4.55;1.73;;;15.20;99.90;;;;;;4993489;28;20424;-60
2021/01/18 07:03:00;;;;;;;5.78;1.70;;;15.30;99.90;;;;;;4992129;28;20393;-60
2021/01/18 07:05:35;;;;;;;3.50;1.77;;;15.50;99.90;;;;;;4992092;28;20062;-61
2021/01/18 07:08:19;;;;;;;11.32;4.03;;;15.60;99.90;;;;;;5007637;28;20036;-61
2021/01/18 07:10:50;;;;;;;12.07;4.35;;;15.00;99.90;;;;;;5011631;28;20084;-61
2021/01/18 07:13:20;;;;;;;6.47;2.42;;;14.30;99.90;;;;;;5011620;28;20030;-59
2021/01/18 07:15:50;;;;;;;6.65;2.28;;;14.90;99.90;;;;;;4995978;28;20109;-61
2021/01/18 07:18:16;;;;;;;7.63;2.45;;;15.20;99.90;;;;;;5002334;28;20026;-60
2021/01/18 07:20:46;;;;;;;5.13;1.70;;;15.40;99.90;;;;;;5009733;28;20026;-62
2021/01/18 07:23:15;;;;;;;10.52;4.80;;;15.50;99.90;;;;;;4996634;28;20088;-61
2021/01/18 07:25:44;;;;;;;9.55;4.75;;;14.70;99.90;;;;;;4992181;28;20019;-61
2021/01/18 07:28:19;;;;;;;11.02;4.55;;;13.60;99.90;;;;;;4991720;28;20088;-62
2021/01/18 07:30:46;;;;;;;11.18;4.05;;;13.80;99.90;;;;;;4991467;28;20054;-61
2021/01/18 07:33:16;;;;;;;7.95;3.53;;;14.10;99.90;;;;;;4998839;28;20037;-62
2021/01/18 07:35:43;;;;;;;6.38;3.10;;;14.30;99.90;;;;;;5008912;28;20037;-59
2021/01/18 07:38:27;;;;;;;7.32;2.95;;;14.50;99.90;;;;;;4998440;28;20356;-62
2021/01/18 07:41:07;;;;;;;8.75;3.03;;;14.50;99.90;;;;;;4998392;28;20116;-63
2021/01/18 07:43:44;;;;;;;8.98;3.00;;;14.60;99.90;;;;;;5006076;28;20379;-62
2021/01/18 07:46:24;;;;;;;11.88;2.70;;;14.80;99.90;;;;;;5010834;28;20092;-61
2021/01/18 07:48:53;;;;;;;5.80;2.67;;;14.90;99.90;;;;;;5010914;28;20073;-61
2021/01/18 07:51:20;;;;;;;6.18;2.38;;;14.90;99.90;;;;;;5009317;28;20049;-63
2021/01/18 07:53:46;;;;;;;8.00;2.42;;;14.90;99.90;;;;;;5000557;28;20030;-62
2021/01/18 07:56:22;;;;;;;8.48;2.42;;;14.90;99.90;;;;;;4991517;28;20038;-61
2021/01/18 07:59:06;;;;;;;8.43;2.40;;;14.90;99.90;;;;;;4992820;28;20030;-62
2021/01/18 08:01:39;;;;;;;5.43;2.40;;;14.90;99.90;;;;;;4991615;28;20061;-63
2021/01/18 08:04:20;;;;;;;6.40;2.60;;;15.00;99.90;;;;;;5003629;28;20363;-62
2021/01/18 08:07:04;;;;;;;7.65;2.33;;;15.00;99.90;;;;;;5008432;28;20036;-62
2021/01/18 08:09:31;;;;;;;9.82;2.50;;;15.00;99.90;;;;;;5011328;28;20026;-61
2021/01/18 08:12:28;;;;;;;6.50;2.60;;;14.90;99.90;;;;;;5010909;28;20069;-61
2021/01/18 08:14:54;;;;;;;5.22;2.58;;;14.90;99.90;;;;;;5010685;28;20086;-62
2021/01/18 08:17:20;;;;;;;8.10;3.00;;;15.00;99.90;;;;;;5007751;28;20026;-68
2021/01/18 08:20:07;;;;;;;7.30;2.75;;;14.70;99.90;;;;;;5009276;28;20033;-62
2021/01/18 08:22:33;;;;;;;6.63;2.35;;;15.50;99.90;;;;;;5010841;28;20026;-61
2021/01/18 08:25:01;;;;;;;7.45;2.13;;;16.80;99.90;;;;;;5011192;28;20026;-64
2021/01/18 08:27:46;;;;;;;3.63;1.58;;;17.70;99.90;;;;;;4999711;28;20019;-63
2021/01/18 08:30:34;;;;;;;3.15;1.58;;;18.40;99.60;;;;;;4991768;28;20022;-63
2021/01/18 08:33:02;;;;;;;5.32;2.00;;;18.90;98.80;;;;;;4991675;28;20049;-63
2021/01/18 08:35:49;;;;;;;4.50;1.90;;;19.20;98.10;;;;;;4991617;28;20018;-62
2021/01/18 08:38:27;;;;;;;4.60;1.58;;;19.30;98.60;;;;;;5011397;28;20038;-63
2021/01/18 08:41:00;;;;;;;6.35;1.85;;;18.90;99.10;;;;;;5003588;28;20053;-64
2021/01/18 08:43:43;;;;;;;8.40;1.90;;;19.30;99.40;;;;;;5013105;28;20109;-64
2021/01/18 08:46:32;;;;;;;4.05;1.33;;;20.00;98.90;;;;;;5009922;28;20309;-63
2021/01/18 08:49:19;;;;;;;4.72;1.25;;;20.70;98.30;;;;;;5005930;28;20049;-65
2021/01/18 08:51:47;;;;;;;2.38;0.82;;;21.10;98.20;;;;;;4993959;28;20042;-64
2021/01/18 08:54:31;;;;;;;4.32;1.00;;;21.30;98.00;;;;;;4995671;28;20041;-65
2021/01/18 08:57:15;;;;;;;;;;;21.60;97.80;;;;;;4994701;28;20026;-63
2021/01/18 08:59:41;;;;;;;2.97;0.95;;;21.50;98.40;;;;;;4995055;28;19913;-62
2021/01/18 09:02:06;;;;;;;1.85;0.82;;;20.50;99.10;;;;;;4994187;28;20034;-64
2021/01/18 09:04:32;;;;;;;2.72;0.70;;;19.70;99.70;;;;;;4994075;28;20045;-62
2021/01/18 09:07:04;;;;;;;2.75;0.90;;;19.00;99.90;;;;;;4995611;28;20034;-63
2021/01/18 09:09:32;;;;;;;3.15;1.00;;;18.60;99.90;;;;;;4995530;28;20073;-63
2021/01/18 09:12:08;;;;;;;2.58;0.80;;;18.80;99.90;;;;;;5009455;28;20084;-62
2021/01/18 09:14:34;;;;;;;1.33;0.80;;;20.00;99.90;;;;;;4994720;28;20019;-62
2021/01/18 09:17:09;;;;;;;1.83;0.70;;;20.80;99.70;;;;;;5001401;28;20066;-62
2021/01/18 09:19:54;;;;;;;2.05;0.80;;;20.30;99.90;;;;;;5013242;28;20030;-62
2021/01/18 09:22:20;;;;;;;2.55;1.00;;;19.50;99.90;;;;;;5013520;28;20099;-62
2021/01/18 09:24:48;;;;;;;3.45;0.80;;;19.00;99.90;;;;;;5012218;28;20073;-65
2021/01/18 09:27:15;;;;;;;1.13;0.60;;;18.60;99.90;;;;;;5013535;28;20467;-61
2021/01/18 09:29:57;;;;;;;1.67;0.73;;;18.30;99.90;;;;;;5013481;28;20382;-61
2021/01/18 09:32:23;;;;;;;1.50;0.63;;;18.60;99.90;;;;;;5011954;28;20042;-62
2021/01/18 09:35:11;;;;;;;2.88;0.75;;;20.00;99.90;;;;;;5013305;28;20080;-62
2021/01/18 09:37:45;;;;;;;1.80;0.70;;;20.30;99.90;;;;;;5012284;28;20417;-61
2021/01/18 09:40:12;;;;;;;2.00;0.60;;;19.70;99.90;;;;;;5013412;28;20413;-62
2021/01/18 09:42:39;;;;;;;1.83;0.57;;;19.10;99.90;;;;;;5010932;28;20034;-63
2021/01/18 09:45:07;;;;;;;1.85;0.70;;;18.70;99.90;;;;;;5013195;28;20505;-62
2021/01/18 09:47:33;;;;;;;1.55;0.70;;;18.40;99.90;;;;;;5012686;28;20516;-62
2021/01/18 09:50:09;;;;;;;1.77;0.60;;;18.10;99.90;;;;;;5013130;28;20026;-61
2021/01/18 09:52:43;;;;;;;1.10;0.60;;;18.70;99.90;;;;;;5001654;28;20038;-64
2021/01/18 09:55:30;;;;;;;2.60;0.90;;;19.90;99.90;;;;;;4993622;28;20026;-62
2021/01/18 09:58:15;;;;;;;2.65;0.77;;;20.30;99.90;;;;;;4993081;28;20042;-62
2021/01/18 10:00:49;;;;;;;2.03;0.60;;;19.60;99.90;;;;;;4993114;28;20534;-63
2021/01/18 10:03:26;;;;;;;1.90;0.60;;;19.00;99.90;;;;;;5008955;28;20474;-64
2021/01/18 10:06:15;;;;;;;1.45;0.60;;;19.10;99.90;;;;;;5012465;28;20034;-64
2021/01/18 10:08:45;;;;;;;1.63;0.60;;;20.20;99.90;;;;;;5012527;28;20029;-65
2021/01/18 10:11:11;;;;;;;1.40;0.50;;;21.20;99.80;;;;;;5012630;28;20061;-63
2021/01/18 10:13:37;;;;;;;1.83;0.52;;;21.80;99.10;;;;;;4993277;28;20386;-64
2021/01/18 10:16:10;;;;;;;1.00;0.60;;;22.20;98.60;;;;;;4992949;28;20124;-62
2021/01/18 10:18:44;;;;;;;1.60;0.40;;;22.60;98.30;;;;;;4992987;28;20033;-65
2021/01/18 10:21:11;;;;;;;1.80;0.60;;;22.90;98.00;;;;;;4999220;28;20052;-61
2021/01/18 10:23:38;;;;;;;2.08;0.77;;;22.90;97.90;;;;;;5011607;28;20030;-64
2021/01/18 10:26:25;;;;;;;1.90;0.80;;;22.00;98.40;;;;;;5012583;28;20104;-63
2021/01/18 10:28:57;;;;;;;2.35;0.60;;;20.90;98.60;;;;;;5012508;28;20026;-63
2021/01/18 10:31:28;;;;;;;1.75;0.60;;;20.80;99.60;;;;;;5011988;28;20367;-64
2021/01/18 10:34:13;;;;;;;2.42;0.80;;;21.80;98.80;;;;;;4997827;28;20085;-62
2021/01/18 10:36:40;;;;;;;1.25;0.65;;;22.60;98.00;;;;;;5011849;28;20112;-62
2021/01/18 10:39:07;;;;;;;1.00;0.50;;;23.00;97.80;;;;;;5012318;28;20018;-62
2021/01/18 10:41:34;;;;;;;0.98;0.43;;;23.40;97.20;;;;;;5010718;28;20445;-63
2021/01/18 10:44:06;;;;;;;0.85;0.50;;;23.70;96.90;;;;;;5010812;28;20022;-63
2021/01/18 10:46:33;;;;;;;3.42;0.43;;;23.90;96.70;;;;;;5012321;28;20030;-62
2021/01/18 10:48:59;;;;;;;1.67;0.38;;;24.10;96.50;;;;;;5012465;28;20018;-66
2021/01/18 10:51:29;;;;;;;1.27;0.50;;;24.20;96.30;;;;;;5012087;28;20045;-66
2021/01/18 10:54:00;;;;;;;1.15;0.40;;;24.50;96.20;;;;;;4999105;28;20389;-65
2021/01/18 10:56:33;;;;;;;1.83;0.77;;;24.40;96.30;;;;;;4992192;28;20031;-62
2021/01/18 10:59:00;;;;;;;1.42;0.57;;;23.60;97.10;;;;;;5000992;28;20022;-63
2021/01/18 11:01:26;;;;;;;1.67;0.40;;;22.70;97.70;;;;;;5011480;28;20037;-63
2021/01/18 11:03:53;;;;;;;1.05;0.45;;;22.00;98.50;;;;;;5011736;28;20061;-65
2021/01/18 11:06:22;;;;;;;1.38;0.50;;;21.50;99.20;;;;;;5011951;28;20025;-64
2021/01/18 11:08:54;;;;;;;2.05;0.60;;;21.40;99.90;;;;;;5011699;28;20022;-62
2021/01/18 11:11:25;;;;;;;1.13;0.45;;;22.40;98.80;;;;;;5011911;28;20382;-64
2021/01/18 11:14:05;;;;;;;1.10;0.40;;;23.40;97.70;;;;;;5011788;28;20030;-65
2021/01/18 11:16:30;;;;;;;1.00;0.35;;;24.00;97.10;;;;;;5012107;28;20356;-66
2021/01/18 11:19:04;;;;;;;1.25;0.63;;;23.90;97.20;;;;;;5011612;28;20033;-65
2021/01/18 11:21:30;;;;;;;1.60;0.57;;;23.00;97.80;;;;;;5012093;28;20041;-67
2021/01/18 11:23:56;;;;;;;1.63;0.68;;;22.30;98.40;;;;;;5011586;28;20055;-64
2021/01/18 11:26:25;;;;;;;1.13;0.50;;;21.80;99.10;;;;;;5010113;28;20536;-67
2021/01/18 11:28:51;;;;;;;1.20;0.52;;;21.40;99.60;;;;;;5010496;28;20112;-68
2021/01/18 11:31:17;;;;;;;3.15;0.60;;;21.10;99.90;;;;;;5011151;28;20041;-66
2021/01/18 11:33:44;;;;;;;2.85;0.55;;;21.90;99.50;;;;;;5010561;28;20512;-67
2021/01/18 11:36:11;;;;;;;3.08;0.70;;;22.80;98.60;;;;;;5011618;28;20030;-67
2021/01/18 11:38:38;;;;;;;2.28;0.65;;;22.50;98.60;;;;;;5011398;28;20045;-67
2021/01/18 11:41:03;;;;;;;1.58;0.90;;;22.00;99.20;;;;;;5011457;28;20105;-66
2021/01/18 11:43:32;;;;;;;1.38;0.80;;;21.50;99.20;;;;;;5007832;28;20106;-67
2021/01/18 11:45:59;;;;;;;2.17;0.90;;;21.10;99.60;;;;;;5011677;28;20030;-67
2021/01/18 11:48:25;;;;;;;1.55;0.82;;;20.80;99.90;;;;;;4999869;28;20034;-66
2021/01/18 11:50:50;;;;;;;2.15;0.60;;;20.50;99.90;;;;;;5009930;28;20029;-67
2021/01/18 11:53:17;;;;;;;2.40;1.00;;;20.30;99.90;;;;;;5011407;28;20128;-67
2021/01/18 11:55:46;;;;;;;4.07;0.90;;;20.20;99.90;;;;;;5011389;28;20117;-68
2021/01/18 11:58:12;;;;;;;3.10;1.02;;;20.00;99.90;;;;;;5011519;28;20029;-67
2021/01/18 12:00:37;;;;;;;2.67;0.90;;;19.90;99.90;;;;;;5010871;28;20021;-68
2021/01/18 12:03:03;;;;;;;3.05;0.98;;;19.80;99.90;;;;;;5010112;28;20093;-67
2021/01/18 12:05:29;;;;;;;2.92;1.13;;;19.70;99.90;;;;;;5009648;28;20037;-67
2021/01/18 12:07:56;;;;;;;2.83;1.10;;;19.50;99.90;;;;;;5005825;28;20026;-65
2021/01/18 12:10:23;;;;;;;3.70;1.17;;;19.50;99.90;;;;;;4995201;28;20441;-65
2021/01/18 12:12:49;;;;;;;3.03;1.33;;;19.40;99.90;;;;;;5007081;28;20093;-66
2021/01/18 12:15:16;;;;;;;2.58;1.20;;;19.30;99.90;;;;;;4998344;28;20065;-67
2021/01/18 12:17:42;;;;;;;3.53;1.10;;;19.10;99.90;;;;;;5014702;28;20022;-67
2021/01/18 12:20:10;;;;;;;2.08;1.02;;;19.00;99.90;;;;;;5014754;28;20030;-64
2021/01/18 12:22:36;;;;;;;3.38;1.40;;;18.90;99.90;;;;;;5014380;28;20105;-67
2021/01/18 12:25:07;;;;;;;3.90;1.55;;;18.80;99.90;;;;;;5014275;28;20436;-66
2021/01/18 12:27:33;;;;;;;2.85;1.17;;;18.70;99.90;;;;;;5010964;28;20116;-66
2021/01/18 12:29:59;;;;;;;3.42;1.30;;;18.60;99.90;;;;;;4995319;28;20486;-68
2021/01/18 12:32:24;;;;;;;3.22;1.30;;;18.50;99.90;;;;;;4995055;28;20038;-67
2021/01/18 12:34:50;;;;;;;3.97;1.30;;;18.40;99.90;;;;;;4994491;28;20471;-67
2021/01/18 12:37:16;;;;;;;2.55;1.20;;;18.30;99.90;;;;;;4994737;28;20383;-66
2021/01/18 12:39:42;;;;;;;5.18;1.40;;;18.30;99.90;;;;;;4994379;28;20029;-66
2021/01/18 12:42:07;;;;;;;3.83;1.40;;;18.20;99.90;;;;;;4994482;28;20466;-66
2021/01/18 12:44:34;;;;;;;3.33;1.45;;;18.10;99.90;;;;;;4994553;28;20026;-65
2021/01/18 12:47:00;;;;;;;5.13;1.60;;;18.10;99.90;;;;;;4995005;28;20073;-66
2021/01/18 12:49:26;;;;;;;3.55;1.55;;;17.90;99.90;;;;;;4994862;28;20023;-65
2021/01/18 12:51:52;;;;;;;4.82;1.77;;;17.90;99.90;;;;;;4994461;28;20116;-65
2021/01/18 12:54:18;;;;;;;4.13;1.95;;;17.70;99.90;;;;;;4994767;28;20124;-65
2021/01/18 12:56:44;;;;;;;3.70;1.70;;;17.70;99.90;;;;;;5005743;28;20057;-65
2021/01/18 12:59:09;;;;;;;4.70;2.17;;;17.60;99.90;;;;;;5004059;28;20479;-64
2021/01/18 13:01:35;;;;;;;2.55;1.45;;;17.60;99.90;;;;;;4995560;28;20105;-69
2021/01/18 13:04:05;;;;;;;4.10;1.48;;;17.50;99.90;;;;;;4994690;28;20113;-69
2021/01/18 13:06:50;;;;;;;3.47;1.10;;;17.50;99.90;;;;;;4994812;28;20076;-65